KSTS/STS METAR and TAF weather

Enter ICAO airport designator
Station Type Date Time Source
KSTS METAR 2019/09/20 08:53 UTC NOAA

KSTS 200853Z AUTO 29003KT 10SM CLR 12/09 A2995 RMK AO2 SLP135 T01170094 51007


Station Type Date Time Source
KSTS Decoded METAR 2019/09/20 08:53 UTC NOAA

SANTA ROSA SONOMA COUNTY, CA, United States (KSTS) 38-30N 122-49W 39M
Sep 20, 2019 - 04:53 AM EDT / 2019.09.20 0853 UTC
Wind: from the WNW (290 degrees) at 3 MPH (3 KT):0
Visibility: 10 mile(s):0
Sky conditions: clear
Temperature: 53.1 F (11.7 C)
Dew Point: 48.9 F (9.4 C)
Relative Humidity: 85%
Pressure (altimeter): 29.95 in. Hg (1014 hPa)
Pressure tendency: 0.02 inches (0.7 hPa) higher than three hours ago
ob: KSTS 200853Z AUTO 29003KT 10SM CLR 12/09 A2995 RMK AO2 SLP135 T01170094 51007
cycle: 9

Station Type Date Time Source
KSTS TAF 2019/09/20 06:30 UTC NOAA

TAF KSTS 200527Z 2006/2106 VRB03KT P6SM SKC
TEMPO 2011/2015 3SM BR
FM202000 21007KT P6SM SKC
FM210400 VRB03KT P6SM SKC

Example: see airport list